Time;durP1;ratioP1;P1;durP2;ratioP2;P2;SDS_P1;SDS_P2;PMS_P1;PMS_P2;Temp;Humidity;BMP_temperature;BMP_pressure;BME280_temperature;BME280_humidity;BME280_pressure;Samples;Min_cycle;Max_cycle;Signal;HPM_P1;HPM_P2
2022/03/10 00:00:18;;;;;;;39.40;16.27;;;;;;;-1.09;75.62;99560.94;5049792;28;20395;-71
2022/03/10 00:02:43;;;;;;;39.67;15.90;;;;;;;-1.22;75.84;99545.91;5005879;28;1040009;-71
2022/03/10 00:05:11;;;;;;;34.17;14.90;;;;;;;-1.07;75.91;99567.84;5031350;28;20021;-71
2022/03/10 00:07:36;;;;;;;31.75;13.95;;;;;;;-1.28;75.57;99548.13;5037344;28;20025;-71
2022/03/10 00:10:03;;;;;;;32.67;14.88;;;;;;;-1.18;75.69;99563.31;5032720;28;20517;-71
2022/03/10 00:12:29;;;;;;;34.85;13.35;;;;;;;-1.30;75.59;99548.25;5035780;28;20017;-71
2022/03/10 00:14:54;;;;;;;31.15;13.52;;;;;;;-1.22;75.36;99547.72;5043965;28;20108;-71
2022/03/10 00:17:19;;;;;;;32.53;12.57;;;;;;;-1.26;75.38;99570.94;5052531;28;20476;-71
2022/03/10 00:19:45;;;;;;;31.40;12.50;;;;;;;-1.32;76.02;99587.31;5035245;28;20024;-71
2022/03/10 00:22:11;;;;;;;36.70;13.13;;;;;;;-1.44;75.89;99557.22;5055623;28;20021;-71
2022/03/10 00:24:38;;;;;;;34.55;13.57;;;;;;;-1.52;75.98;99566.66;5033086;28;20025;-71
2022/03/10 00:27:04;;;;;;;36.53;14.50;;;;;;;-1.45;75.32;99583.84;5041281;28;20029;-71
2022/03/10 00:29:29;;;;;;;30.58;13.68;;;;;;;-1.60;75.79;99569.84;5048716;28;20456;-71
2022/03/10 00:31:55;;;;;;;29.92;13.57;;;;;;;-1.65;75.91;99571.97;5033462;28;20024;-71
2022/03/10 00:34:20;;;;;;;28.38;12.98;;;;;;;-1.59;76.05;99585.66;5051214;28;20436;-71
2022/03/10 00:36:45;;;;;;;32.42;14.02;;;;;;;-1.74;75.96;99589.38;5052215;28;20028;-71
2022/03/10 00:39:11;;;;;;;32.83;13.75;;;;;;;-1.87;75.93;99556.69;5056896;28;20099;-71
2022/03/10 00:41:36;;;;;;;28.23;13.75;;;;;;;-1.81;75.79;99580.13;5046191;28;20150;-72
2022/03/10 00:44:01;;;;;;;34.42;14.70;;;;;;;-1.68;76.19;99594.25;5050239;28;20427;-71
2022/03/10 00:46:27;;;;;;;29.10;12.88;;;;;;;-1.82;76.57;99589.06;5040255;28;20033;-72
2022/03/10 00:48:52;;;;;;;29.45;13.32;;;;;;;-1.91;77.10;99581.72;5033102;28;20032;-72
2022/03/10 00:51:18;;;;;;;32.55;13.43;;;;;;;-1.85;77.92;99602.53;5065122;28;20031;-71
2022/03/10 00:53:44;;;;;;;29.95;13.02;;;;;;;-1.82;76.75;99591.72;5051454;28;20036;-72
2022/03/10 00:56:10;;;;;;;31.23;13.70;;;;;;;-1.83;77.32;99601.47;5041966;28;20028;-72
2022/03/10 00:58:35;;;;;;;32.45;13.90;;;;;;;-1.90;77.28;99580.78;5052786;28;20036;-72
2022/03/10 01:01:00;;;;;;;32.17;13.55;;;;;;;-1.87;78.24;99585.88;5034108;28;20036;-72
2022/03/10 01:03:25;;;;;;;32.38;12.75;;;;;;;-1.96;77.78;99583.88;5034366;28;20051;-72
2022/03/10 01:05:51;;;;;;;28.55;13.18;;;;;;;-2.04;77.76;99566.66;5041925;28;20087;-72
2022/03/10 01:08:17;;;;;;;27.30;12.20;;;;;;;-1.88;77.82;99578.88;5050057;28;20147;-72
2022/03/10 01:10:42;;;;;;;30.08;13.25;;;;;;;-1.94;77.84;99587.22;5049627;28;20029;-72
2022/03/10 01:13:12;;;;;;;28.10;12.73;;;;;;;-1.92;77.94;99590.63;5043960;28;20029;-72
2022/03/10 01:15:38;;;;;;;31.02;14.05;;;;;;;-1.90;78.17;99580.78;5051071;28;20107;-72
2022/03/10 01:18:03;;;;;;;29.45;13.18;;;;;;;-1.74;77.84;99589.38;5052745;28;20584;-72
2022/03/10 01:20:29;;;;;;;31.85;13.75;;;;;;;-1.75;77.43;99577.06;5060596;28;20080;-72
2022/03/10 01:22:55;;;;;;;31.25;13.02;;;;;;;-1.77;77.65;99578.97;5053226;28;20025;-72
2022/03/10 01:25:20;;;;;;;26.90;12.75;;;;;;;-1.95;77.28;99573.13;5065805;28;20025;-72
2022/03/10 01:27:46;;;;;;;29.02;12.63;;;;;;;-2.06;77.75;99571.22;5062639;28;20049;-72
2022/03/10 01:30:13;;;;;;;32.60;12.50;;;;;;;-1.89;77.95;99580.66;5048412;28;20093;-73
2022/03/10 01:32:38;;;;;;;24.60;11.98;;;;;;;-2.06;78.32;99568.56;5051281;28;20017;-72
2022/03/10 01:35:05;;;;;;;28.50;13.18;;;;;;;-2.00;78.14;99581.41;5040722;28;20084;-72
2022/03/10 01:37:34;;;;;;;30.58;12.85;;;;;;;-2.13;78.37;99574.38;5058647;28;20044;-72
2022/03/10 01:39:59;;;;;;;29.95;11.63;;;;;;;-2.16;77.89;99562.19;5052499;28;20021;-73
2022/03/10 01:42:24;;;;;;;30.92;12.75;;;;;;;-2.09;77.57;99542.28;5052362;28;20041;-72
2022/03/10 01:44:54;;;;;;;32.92;13.27;;;;;;;-2.32;77.62;99525.28;5066359;28;20658;-72
2022/03/10 01:47:19;;;;;;;33.08;13.88;;;;;;;-2.33;77.67;99566.00;5064122;28;20033;-72
2022/03/10 01:49:45;;;;;;;33.42;13.00;;;;;;;-2.47;78.19;99558.94;5070745;28;20033;-72
2022/03/10 01:52:10;;;;;;;33.42;15.32;;;;;;;-2.52;78.60;99566.34;5069049;28;20017;-72
2022/03/10 01:54:36;;;;;;;30.45;14.63;;;;;;;-2.55;79.12;99582.44;5059317;28;20401;-72
2022/03/10 01:57:03;;;;;;;35.95;14.05;;;;;;;-2.72;79.44;99545.66;5025443;28;20025;-72
2022/03/10 01:59:29;;;;;;;31.58;14.40;;;;;;;-2.73;79.68;99565.97;5052623;28;20579;-72
2022/03/10 02:01:54;;;;;;;31.95;13.05;;;;;;;-2.93;80.15;99532.84;5035402;28;20131;-72
2022/03/10 02:04:20;;;;;;;28.42;12.98;;;;;;;-2.88;80.91;99553.75;5049909;28;20087;-72
2022/03/10 02:06:45;;;;;;;33.47;13.35;;;;;;;-2.79;80.47;99568.16;5033021;28;20025;-72
2022/03/10 02:11:54;;;;;;;26.45;11.88;;;;;;;-2.85;81.36;99579.16;5053112;28;20109;-72
2022/03/10 02:17:20;;;;;;;26.35;11.98;;;;;;;-2.81;81.37;99580.66;5034532;28;20088;-72
2022/03/10 02:19:53;;;;;;;28.15;12.50;;;;;;;-2.65;81.21;99574.28;5045279;28;20127;-72
2022/03/10 02:22:20;;;;;;;29.23;13.27;;;;;;;-2.50;80.99;99580.34;5050504;28;20036;-72
2022/03/10 02:24:47;;;;;;;37.63;13.55;;;;;;;-2.48;80.57;99588.19;5044287;28;20037;-72
2022/03/10 02:27:12;;;;;;;36.15;14.27;;;;;;;-2.55;80.63;99590.41;5037413;28;20021;-72
2022/03/10 02:29:38;;;;;;;37.35;17.13;;;;;;;-2.63;79.77;99578.63;5054081;28;20032;-72
2022/03/10 02:32:04;;;;;;;33.67;16.08;;;;;;;-2.79;80.04;99578.75;5048372;28;20029;-72
2022/03/10 02:34:29;;;;;;;36.75;16.13;;;;;;;-2.93;80.55;99567.28;5040137;28;20024;-72
2022/03/10 02:36:54;;;;;;;38.17;16.95;;;;;;;-2.87;81.81;99589.84;5049228;28;20029;-72
2022/03/10 02:39:20;;;;;;;31.60;15.40;;;;;;;-2.97;81.81;99575.50;5051161;28;20052;-72
2022/03/10 02:41:45;;;;;;;30.00;14.40;;;;;;;-2.96;80.55;99570.13;5047728;28;20139;-72
2022/03/10 02:44:10;;;;;;;32.38;13.68;;;;;;;-2.87;80.69;99577.47;5035953;28;20032;-72
2022/03/10 02:46:35;;;;;;;38.08;16.05;;;;;;;-2.89;81.88;99584.63;5050214;28;20038;-72
2022/03/10 02:49:01;;;;;;;31.75;13.85;;;;;;;-2.91;82.14;99581.25;5030786;28;20538;-72
2022/03/10 02:51:26;;;;;;;37.28;15.05;;;;;;;-2.72;81.49;99596.81;5043365;28;20021;-72
2022/03/10 02:53:51;;;;;;;32.45;14.60;;;;;;;-2.66;81.85;99600.84;5034370;28;20439;-72
2022/03/10 02:56:17;;;;;;;36.67;14.70;;;;;;;-2.71;80.83;99590.53;5046133;28;20099;-72
2022/03/10 02:58:42;;;;;;;38.40;17.15;;;;;;;-2.85;81.23;99574.72;5059394;28;20021;-72
2022/03/10 03:01:07;;;;;;;36.28;16.65;;;;;;;-2.86;81.34;99578.28;5059502;28;20045;-72
2022/03/10 03:03:33;;;;;;;36.95;16.70;;;;;;;-2.91;80.91;99589.22;5032864;28;20037;-72
2022/03/10 03:05:59;;;;;;;33.53;15.25;;;;;;;-2.93;80.14;99583.16;5031519;28;20487;-72
2022/03/10 03:08:24;;;;;;;34.83;16.40;;;;;;;-2.93;80.23;99609.63;5049740;28;20116;-72
2022/03/10 03:10:50;;;;;;;33.72;16.23;;;;;;;-2.99;81.19;99610.00;5033888;28;20468;-73
2022/03/10 03:13:15;;;;;;;44.17;17.27;;;;;;;-3.02;82.07;99601.41;5030229;28;20619;-72
2022/03/10 03:15:40;;;;;;;32.55;15.25;;;;;;;-3.05;82.22;99597.16;5049539;28;20036;-72
2022/03/10 03:18:06;;;;;;;25.20;12.15;;;;;;;-3.19;80.85;99598.06;5066483;28;20039;-72
2022/03/10 03:20:31;;;;;;;36.70;13.57;;;;;;;-3.07;79.85;99622.88;5041694;28;20176;-72
2022/03/10 03:22:56;;;;;;;29.10;13.05;;;;;;;-3.16;80.47;99618.19;5052688;28;20108;-72
2022/03/10 03:25:22;;;;;;;32.33;13.73;;;;;;;-3.21;80.96;99620.25;5029773;28;20052;-72
2022/03/10 03:27:47;;;;;;;33.03;14.13;;;;;;;-3.22;82.10;99619.41;5032585;28;20037;-72
2022/03/10 03:30:13;;;;;;;34.10;15.32;;;;;;;-3.26;82.13;99614.41;5026591;28;20033;-72
2022/03/10 03:32:38;;;;;;;35.88;14.18;;;;;;;-3.44;82.76;99598.72;5038617;28;20030;-72
2022/03/10 03:35:04;;;;;;;32.88;13.75;;;;;;;-3.34;82.03;99621.00;5043124;28;20115;-72
2022/03/10 03:37:29;;;;;;;29.20;12.80;;;;;;;-3.42;82.66;99607.41;5051676;28;20075;-72
2022/03/10 03:39:55;;;;;;;31.17;13.60;;;;;;;-3.38;82.19;99606.28;5050547;28;20377;-72
2022/03/10 03:42:20;;;;;;;34.42;14.02;;;;;;;-3.44;82.70;99619.88;5037312;28;20497;-72
2022/03/10 03:44:45;;;;;;;28.92;14.13;;;;;;;-3.51;82.72;99605.34;5029532;28;20037;-72
2022/03/10 03:47:11;;;;;;;30.05;13.75;;;;;;;-3.50;83.09;99595.63;5051542;28;20397;-72
2022/03/10 03:49:36;;;;;;;30.27;13.23;;;;;;;-3.44;83.17;99629.63;5055759;28;20070;-72
2022/03/10 03:52:02;;;;;;;30.00;13.38;;;;;;;-3.55;83.17;99588.81;5036559;28;20107;-72
2022/03/10 03:54:27;;;;;;;29.67;12.57;;;;;;;-3.40;83.41;99607.34;5032661;28;20048;-72
2022/03/10 03:56:52;;;;;;;32.17;13.00;;;;;;;-3.50;82.49;99635.31;5048412;28;20033;-72
2022/03/10 03:59:20;;;;;;;30.05;12.75;;;;;;;-3.46;83.36;99624.41;5061305;28;20041;-72
2022/03/10 04:01:45;;;;;;;29.08;12.65;;;;;;;-3.52;82.94;99632.72;5058481;28;20060;-72
2022/03/10 04:04:11;;;;;;;31.20;13.93;;;;;;;-3.70;83.39;99612.69;5035225;28;20116;-72
2022/03/10 04:06:36;;;;;;;28.70;12.75;;;;;;;-3.72;83.59;99610.16;5028611;28;20053;-72
2022/03/10 04:09:01;;;;;;;29.80;13.00;;;;;;;-3.52;82.92;99638.88;5030362;28;20029;-72
2022/03/10 04:11:27;;;;;;;27.05;12.95;;;;;;;-3.55;83.77;99638.22;5032890;28;20428;-72
2022/03/10 04:13:52;;;;;;;28.48;11.57;;;;;;;-3.57;83.68;99625.06;5047465;28;20048;-72
2022/03/10 04:16:18;;;;;;;29.63;11.63;;;;;;;-3.52;83.45;99638.88;5022554;28;20400;-72
2022/03/10 04:18:43;;;;;;;27.17;11.68;;;;;;;-3.53;83.79;99626.59;5013935;28;20478;-72
2022/03/10 04:21:09;;;;;;;28.83;11.70;;;;;;;-3.54;83.82;99621.38;5049418;28;20033;-72
2022/03/10 04:23:34;;;;;;;28.80;13.10;;;;;;;-3.34;82.81;99644.00;5037602;28;20032;-72
2022/03/10 04:26:00;;;;;;;24.77;11.73;;;;;;;-3.47;82.03;99641.25;5048799;28;20480;-72
2022/03/10 04:28:26;;;;;;;28.55;12.60;;;;;;;-3.35;82.60;99613.19;5031701;28;20024;-72
2022/03/10 04:30:51;;;;;;;27.08;12.18;;;;;;;-3.38;82.83;99613.34;5043202;28;20117;-71
2022/03/10 04:33:17;;;;;;;25.67;12.20;;;;;;;-3.18;83.38;99631.50;5030463;28;20051;-72
2022/03/10 04:35:43;;;;;;;28.88;12.25;;;;;;;-3.18;84.16;99641.25;5046920;28;20033;-72
2022/03/10 04:38:08;;;;;;;30.83;11.52;;;;;;;-3.39;83.94;99631.03;5050050;28;20037;-72
2022/03/10 04:40:34;;;;;;;26.38;12.02;;;;;;;-3.60;83.92;99613.84;5050212;28;20114;-72
2022/03/10 04:42:59;;;;;;;27.50;11.85;;;;;;;-3.52;83.87;99641.50;5036546;28;20061;-72
2022/03/10 04:45:25;;;;;;;27.20;11.65;;;;;;;-3.56;84.06;99634.72;5031292;28;20412;-72
2022/03/10 04:47:50;;;;;;;31.23;11.55;;;;;;;-3.67;83.17;99617.78;5028095;28;20052;-73
2022/03/10 04:50:18;;;;;;;27.40;10.88;;;;;;;-3.66;83.94;99638.03;5046121;28;20025;-73
2022/03/10 04:52:44;;;;;;;25.23;11.18;;;;;;;-3.81;84.44;99630.06;5054885;28;20024;-74
2022/03/10 04:55:11;;;;;;;26.08;12.02;;;;;;;-3.67;84.26;99644.25;5037102;28;20092;-73
2022/03/10 04:57:37;;;;;;;26.30;12.38;;;;;;;-3.71;83.25;99645.38;5037803;28;20031;-76
2022/03/10 05:00:08;;;;;;;27.67;11.23;;;;;;;-3.91;83.14;99622.78;5036832;28;20037;-74
2022/03/10 05:02:35;;;;;;;25.48;10.88;;;;;;;-3.85;82.82;99636.50;5051538;28;20029;-75
2022/03/10 05:05:00;;;;;;;26.73;11.70;;;;;;;-3.84;83.89;99635.53;5051295;28;20025;-75
2022/03/10 05:07:25;;;;;;;25.30;10.60;;;;;;;-3.83;84.63;99610.78;5036626;28;20769;-77
2022/03/10 05:12:26;;;;;;;24.50;10.82;;;;;;;-5.04;83.74;99432.25;5042878;23;20057;-71
2022/03/10 05:14:51;;;;;;;48.35;18.25;;;;;;;-3.75;84.61;99624.41;4993615;28;20041;-70
2022/03/10 05:17:17;;;;;;;72.53;23.85;;;;;;;-3.78;85.47;99626.38;4994141;28;20117;-69
2022/03/10 05:19:42;;;;;;;45.83;16.92;;;;;;;-3.84;85.68;99622.31;4986874;28;20034;-78
2022/03/10 05:22:08;;;;;;;62.33;21.02;;;;;;;-3.86;86.05;99608.34;4969056;28;20078;-74
2022/03/10 05:24:34;;;;;;;56.28;18.13;;;;;;;-3.82;85.52;99609.88;4979212;28;20034;-74
2022/03/10 05:27:00;;;;;;;34.83;13.43;;;;;;;-3.76;86.06;99585.69;4976026;28;20454;-73
2022/03/10 05:29:26;;;;;;;33.33;11.77;;;;;;;-3.80;85.47;99593.88;4995303;28;20063;-76
2022/03/10 05:31:51;;;;;;;30.90;12.18;;;;;;;-3.98;85.41;99582.66;4993253;28;20030;-72
2022/03/10 05:34:17;;;;;;;28.00;12.00;;;;;;;-3.95;86.22;99600.97;4977292;28;20513;-71
2022/03/10 05:36:42;;;;;;;44.30;11.90;;;;;;;-3.86;86.31;99618.91;4984282;28;20508;-71
2022/03/10 05:39:08;;;;;;;25.10;10.25;;;;;;;-4.21;86.26;99566.38;4986253;28;20038;-77
2022/03/10 05:41:33;;;;;;;31.65;11.07;;;;;;;-4.03;86.55;99600.59;4997106;28;20034;-78
2022/03/10 05:43:59;;;;;;;31.85;11.90;;;;;;;-4.13;86.06;99586.22;4976965;28;20045;-67
2022/03/10 05:46:25;;;;;;;24.98;10.95;;;;;;;-4.07;85.12;99620.19;4987311;28;20061;-66
2022/03/10 05:48:50;;;;;;;32.35;11.95;;;;;;;-4.20;85.21;99615.63;4993452;28;20048;-71
2022/03/10 05:51:15;;;;;;;30.75;14.43;;;;;;;-4.22;84.63;99611.38;4991292;28;20038;-72
2022/03/10 05:53:41;;;;;;;29.67;14.65;;;;;;;-4.37;84.82;99589.34;4991995;28;20115;-72
2022/03/10 05:56:07;;;;;;;29.92;13.05;;;;;;;-4.27;85.13;99610.78;4978115;28;20153;-72
2022/03/10 05:58:32;;;;;;;27.02;12.23;;;;;;;-4.29;85.62;99616.19;4987300;28;20437;-70
2022/03/10 06:00:57;;;;;;;30.00;11.75;;;;;;;-4.38;85.71;99605.28;4999488;28;20034;-73
2022/03/10 06:03:23;;;;;;;23.63;10.10;;;;;;;-4.54;85.46;99582.41;4973455;28;20039;-74
2022/03/10 06:05:48;;;;;;;28.27;11.00;;;;;;;-4.45;85.25;99602.16;4975024;28;20022;-67
2022/03/10 06:08:13;;;;;;;25.85;10.73;;;;;;;-4.40;85.90;99615.97;4978385;28;20568;-65
2022/03/10 06:10:39;;;;;;;28.38;11.35;;;;;;;-4.25;86.25;99630.88;4994178;28;20073;-68
2022/03/10 06:13:05;;;;;;;30.65;11.18;;;;;;;-4.21;85.90;99623.66;5010151;28;20078;-70
2022/03/10 06:15:30;;;;;;;29.65;13.07;;;;;;;-3.35;86.05;99634.34;4995724;28;20034;-69
2022/03/10 06:17:56;;;;;;;38.95;17.77;;;;;;;-0.95;75.70;99622.72;4965904;28;20026;-67
2022/03/10 06:20:21;;;;;;;37.85;17.95;;;;;;;1.40;66.53;99607.41;4992736;28;20025;-73
2022/03/10 06:22:46;;;;;;;31.52;13.43;;;;;;;2.45;60.56;99618.22;4975168;28;20520;-73
2022/03/10 06:25:12;;;;;;;27.05;12.25;;;;;;;3.65;57.01;99623.72;4994964;28;20022;-71
2022/03/10 06:27:38;;;;;;;27.83;12.65;;;;;;;5.04;51.36;99612.50;4992232;28;20375;-74
2022/03/10 06:30:04;;;;;;;22.83;12.05;;;;;;;5.89;48.84;99597.84;4991693;28;20540;-71
2022/03/10 06:32:29;;;;;;;23.80;12.63;;;;;;;6.83;47.37;99593.69;4991089;28;20417;-71
2022/03/10 06:34:57;;;;;;;20.77;10.68;;;;;;;7.92;44.47;99598.25;4985732;28;20129;-73
2022/03/10 06:37:23;;;;;;;19.90;11.02;;;;;;;7.97;43.85;99593.22;4974623;28;20489;-71
2022/03/10 06:39:48;;;;;;;26.48;11.27;;;;;;;8.46;41.55;99604.03;4993412;28;20026;-74
2022/03/10 06:42:14;;;;;;;20.30;10.95;;;;;;;9.95;39.72;99597.00;4984155;28;20034;-69
2022/03/10 06:44:39;;;;;;;21.95;10.40;;;;;;;10.04;38.20;99596.78;4992466;28;20234;-71
2022/03/10 06:47:07;;;;;;;23.45;11.38;;;;;;;10.65;37.54;99615.72;4976030;28;20026;-74
2022/03/10 06:49:33;;;;;;;24.38;12.15;;;;;;;11.10;36.16;99619.31;4988520;28;20040;-72
2022/03/10 06:51:59;;;;;;;22.75;12.30;;;;;;;11.33;36.72;99610.25;4989504;28;20022;-73
2022/03/10 06:54:24;;;;;;;20.08;11.80;;;;;;;10.67;36.51;99613.69;4984692;28;20034;-74
2022/03/10 06:56:49;;;;;;;23.23;13.25;;;;;;;10.97;36.33;99625.38;4989961;28;20092;-72
2022/03/10 06:59:15;;;;;;;21.77;12.88;;;;;;;10.66;37.32;99622.84;4959455;28;20117;-72
2022/03/10 07:01:41;;;;;;;21.88;12.35;;;;;;;10.56;36.77;99614.13;4987508;28;20742;-71
2022/03/10 07:04:07;;;;;;;23.85;13.57;;;;;;;10.97;36.23;99619.13;4996988;28;20587;-80
2022/03/10 07:06:32;;;;;;;33.33;16.00;;;;;;;11.07;35.94;99616.13;4989917;28;20026;-78
2022/03/10 07:08:58;;;;;;;40.60;16.90;;;;;;;10.97;36.20;99619.13;4985454;28;20026;-77
2022/03/10 07:11:25;;;;;;;36.58;16.83;;;;;;;11.49;35.65;99639.00;4987928;28;20032;-76
2022/03/10 07:13:51;;;;;;;30.88;16.60;;;;;;;11.51;34.72;99621.53;4990453;28;20096;-75
2022/03/10 07:16:16;;;;;;;37.88;16.92;;;;;;;12.45;33.18;99635.09;4993269;28;20522;-75
2022/03/10 07:18:41;;;;;;;26.40;16.60;;;;;;;13.34;32.87;99644.53;4985031;28;20030;-70
2022/03/10 07:21:07;;;;;;;30.67;16.80;;;;;;;13.27;32.48;99636.34;4982016;28;20025;-74
2022/03/10 07:23:33;;;;;;;26.30;15.45;;;;;;;13.47;31.99;99622.03;4982050;28;20034;-72
2022/03/10 07:25:58;;;;;;;31.30;15.88;;;;;;;13.62;31.41;99627.28;4990193;28;20035;-74
2022/03/10 07:28:24;;;;;;;28.92;14.95;;;;;;;14.42;31.00;99650.13;4990686;28;20425;-73
2022/03/10 07:30:50;;;;;;;25.55;13.85;;;;;;;14.17;31.12;99645.28;4985955;28;20521;-73
2022/03/10 07:33:16;;;;;;;28.63;14.13;;;;;;;13.75;31.85;99646.38;4988972;28;20022;-74
2022/03/10 07:35:41;;;;;;;25.73;12.57;;;;;;;13.68;31.48;99645.53;4976081;28;20034;-74
2022/03/10 07:38:07;;;;;;;16.10;11.27;;;;;;;14.30;30.50;99659.94;4987900;28;20031;-75
2022/03/10 07:40:32;;;;;;;22.55;11.75;;;;;;;13.63;31.42;99637.16;4989770;28;20497;-72
2022/03/10 07:42:57;;;;;;;22.38;11.88;;;;;;;13.59;31.91;99639.41;4989883;28;20561;-77
2022/03/10 07:45:23;;;;;;;19.02;11.55;;;;;;;14.68;30.57;99658.34;4972794;28;20601;-76
2022/03/10 07:47:48;;;;;;;18.90;11.80;;;;;;;16.13;29.05;99635.53;4992703;28;20034;-76
2022/03/10 07:50:14;;;;;;;20.65;11.80;;;;;;;16.06;28.50;99645.63;4993095;28;20390;-74
2022/03/10 07:52:40;;;;;;;15.88;10.52;;;;;;;16.28;28.21;99657.91;4972317;28;20054;-69
2022/03/10 07:55:08;;;;;;;15.80;10.65;;;;;;;16.39;27.55;99649.00;4991232;28;20104;-78
2022/03/10 07:57:34;;;;;;;17.40;9.88;;;;;;;16.81;27.05;99654.81;4971897;28;20030;-76
2022/03/10 07:59:59;;;;;;;17.60;11.55;;;;;;;17.24;26.48;99642.25;4980283;28;20130;-75
2022/03/10 08:02:24;;;;;;;16.08;11.20;;;;;;;16.51;27.68;99640.94;4990404;28;20433;-74
2022/03/10 08:04:49;;;;;;;16.48;9.88;;;;;;;18.62;25.69;99657.91;4989992;28;20506;-74
2022/03/10 08:07:15;;;;;;;15.00;10.15;;;;;;;19.05;24.33;99628.56;4986711;28;20034;-74
2022/03/10 08:09:40;;;;;;;14.65;10.40;;;;;;;18.25;25.82;99653.66;4983763;28;20169;-71
2022/03/10 08:12:07;;;;;;;15.52;10.20;;;;;;;17.55;26.37;99645.88;4988184;28;20026;-72
2022/03/10 08:14:34;;;;;;;18.00;10.57;;;;;;;17.66;27.08;99648.72;4989012;28;20030;-75
2022/03/10 08:16:59;;;;;;;14.93;10.15;;;;;;;18.00;26.05;99626.38;4993854;28;20026;-76
2022/03/10 08:19:24;;;;;;;17.15;10.57;;;;;;;18.37;25.69;99643.56;4988019;28;20037;-75
2022/03/10 08:21:51;;;;;;;18.75;11.50;;;;;;;19.13;25.10;99630.94;4985354;28;20038;-69
2022/03/10 08:24:16;;;;;;;19.90;11.88;;;;;;;19.49;24.64;99634.47;4987597;28;20113;-72
2022/03/10 08:26:43;;;;;;;17.40;11.43;;;;;;;19.11;24.50;99643.22;4976820;28;20185;-69
2022/03/10 08:29:08;;;;;;;21.98;12.13;;;;;;;19.92;23.76;99614.81;4982452;28;20041;-73
2022/03/10 08:31:34;;;;;;;19.67;11.95;;;;;;;20.21;23.31;99612.06;4973516;28;20034;-74
2022/03/10 08:33:59;;;;;;;17.80;11.85;;;;;;;20.18;23.24;99596.06;4988023;28;20026;-73
2022/03/10 08:36:24;;;;;;;19.02;11.82;;;;;;;20.61;22.91;99622.13;4983982;28;20490;-73
2022/03/10 08:38:50;;;;;;;16.17;10.27;;;;;;;22.02;21.27;99617.25;4985019;28;20449;-70
2022/03/10 08:41:17;;;;;;;15.73;10.02;;;;;;;22.04;21.09;99612.31;4987268;28;20037;-70
2022/03/10 08:43:42;;;;;;;11.95;8.52;;;;;;;22.95;20.02;99606.84;4981188;28;20100;-73
2022/03/10 08:46:08;;;;;;;13.23;10.30;;;;;;;23.27;20.45;99617.00;4987118;28;20089;-75
2022/03/10 08:48:34;;;;;;;18.08;11.02;;;;;;;21.40;21.52;99601.91;4989155;28;20027;-73
2022/03/10 08:51:03;;;;;;;14.98;10.75;;;;;;;23.22;20.59;99581.09;4990449;28;20501;-78
2022/03/10 08:53:30;;;;;;;14.30;10.55;;;;;;;21.27;21.53;99588.47;4986977;28;20410;-75
2022/03/10 08:55:56;;;;;;;14.75;10.10;;;;;;;21.70;21.94;99598.72;4970218;28;20030;-75
2022/03/10 08:58:21;;;;;;;14.60;9.45;;;;;;;21.88;21.39;99594.78;4986814;28;20051;-74
2022/03/10 09:00:47;;;;;;;14.05;9.10;;;;;;;22.58;20.59;99581.16;4970194;28;20030;-71
2022/03/10 09:03:12;;;;;;;11.82;8.40;;;;;;;23.40;20.21;99580.63;4989671;28;20113;-70
2022/03/10 09:05:40;;;;;;;14.50;10.68;;;;;;;24.54;18.48;99579.84;4995510;28;20018;-77
2022/03/10 09:08:05;;;;;;;13.45;8.40;;;;;;;24.45;18.42;99560.22;4989502;28;20091;-78
2022/03/10 09:10:31;;;;;;;11.00;8.35;;;;;;;25.02;18.02;99563.78;4977796;28;20053;-78
2022/03/10 09:12:56;;;;;;;12.52;8.02;;;;;;;25.10;18.13;99581.75;4975448;28;20541;-78
2022/03/10 09:15:22;;;;;;;10.20;8.30;;;;;;;24.75;18.67;99557.72;4977694;28;20750;-77
2022/03/10 09:17:48;;;;;;;10.20;8.40;;;;;;;24.55;19.14;99576.00;4973629;28;20060;-76
2022/03/10 09:20:14;;;;;;;10.13;8.35;;;;;;;25.11;18.77;99580.63;4985765;28;20031;-76
2022/03/10 09:22:42;;;;;;;11.30;7.82;;;;;;;24.49;19.81;99580.69;4978406;28;20030;-75
2022/03/10 09:25:09;;;;;;;9.60;8.07;;;;;;;24.43;19.72;99564.34;4980211;28;20026;-75
2022/03/10 09:27:38;;;;;;;12.13;8.30;;;;;;;24.80;19.32;99554.94;4981632;28;20038;-72
2022/03/10 09:30:08;;;;;;;12.07;9.00;;;;;;;24.77;19.18;99566.56;4980279;28;20058;-72
2022/03/10 09:32:38;;;;;;;12.98;8.43;;;;;;;25.02;19.23;99569.31;4984829;28;20067;-73
2022/03/10 09:35:05;;;;;;;9.40;8.02;;;;;;;26.31;18.05;99561.28;4984041;28;20502;-73
2022/03/10 09:37:31;;;;;;;10.70;7.57;;;;;;;27.08;17.82;99565.03;4990072;28;20033;-71
2022/03/10 09:39:56;;;;;;;12.77;7.80;;;;;;;27.13;17.38;99558.59;4967951;28;20038;-71
2022/03/10 09:42:27;;;;;;;12.20;7.50;;;;;;;26.98;17.64;99561.53;4987096;28;20058;-72
2022/03/10 09:44:54;;;;;;;7.63;6.38;;;;;;;24.80;18.51;99554.94;4986826;28;20030;-72
2022/03/10 09:47:20;;;;;;;9.60;7.00;;;;;;;25.29;18.39;99551.53;4992417;28;20223;-76
2022/03/10 09:49:46;;;;;;;12.63;8.63;;;;;;;25.85;17.85;99553.25;4971967;28;20037;-74
2022/03/10 09:52:13;;;;;;;7.20;5.80;;;;;;;24.13;18.39;99551.31;4990432;28;21408;-73
2022/03/10 09:54:39;;;;;;;5.78;4.95;;;;;;;25.71;16.65;99553.84;4995368;28;20019;-74
2022/03/10 09:57:05;;;;;;;6.60;5.10;;;;;;;25.04;17.27;99556.00;4970313;28;20058;-73
2022/03/10 09:59:31;;;;;;;7.70;5.80;;;;;;;23.79;18.27;99543.53;4974965;28;20490;-76
2022/03/10 10:01:56;;;;;;;8.73;5.65;;;;;;;25.25;16.95;99515.25;4993420;28;20033;-74
2022/03/10 10:04:22;;;;;;;13.63;5.63;;;;;;;25.51;17.22;99540.09;4975663;28;20740;-75
2022/03/10 10:07:10;;;;;;;7.25;5.35;;;;;;;24.37;17.83;99535.03;4991979;28;20026;-77
2022/03/10 10:09:47;;;;;;;8.68;5.57;;;;;;;24.42;17.85;99532.25;4969984;28;20049;-69
2022/03/10 10:12:14;;;;;;;11.85;5.40;;;;;;;24.05;18.20;99533.31;4989157;28;20018;-69
2022/03/10 10:14:45;;;;;;;8.40;5.00;;;;;;;24.54;17.98;99524.53;4993301;28;20053;-67
2022/03/10 10:17:11;;;;;;;9.43;4.90;;;;;;;25.02;17.20;99502.00;4989836;28;20038;-69
2022/03/10 10:19:38;;;;;;;5.18;4.28;;;;;;;25.66;16.77;99511.47;4989456;28;20037;-70
2022/03/10 10:22:21;;;;;;;7.22;5.20;;;;;;;25.56;17.10;99507.63;4993449;28;20062;-70
2022/03/10 10:24:54;;;;;;;6.57;4.47;;;;;;;25.93;16.60;99509.09;4989459;28;20030;-66
2022/03/10 10:27:23;;;;;;;5.85;4.25;;;;;;;23.19;18.38;99518.97;4988109;28;20022;-66
2022/03/10 10:29:53;;;;;;;5.23;4.30;;;;;;;22.33;18.91;99519.19;4991290;28;20033;-66
2022/03/10 10:32:33;;;;;;;6.60;3.90;;;;;;;22.53;19.17;99507.47;4993508;28;20780;-70
2022/03/10 10:35:13;;;;;;;7.55;4.40;;;;;;;23.29;18.81;99509.03;4986570;28;20037;-74
2022/03/10 10:37:39;;;;;;;;;;;;;;;24.50;17.25;99506.84;4972706;28;20568;-74
2022/03/10 10:40:06;;;;;;;5.97;3.50;;;;;;;23.92;17.88;99493.25;4980546;28;19918;-76
2022/03/10 10:42:34;;;;;;;5.03;3.45;;;;;;;24.27;17.11;99492.41;4991552;28;20788;-75
2022/03/10 10:45:00;;;;;;;5.60;3.58;;;;;;;22.97;18.44;99496.19;4987931;28;20061;-72
2022/03/10 10:47:29;;;;;;;4.60;2.90;;;;;;;21.67;19.03;99495.41;4986853;28;20041;-72
2022/03/10 10:50:04;;;;;;;4.85;3.38;;;;;;;21.75;18.98;99483.09;4979702;28;20129;-73
2022/03/10 10:52:39;;;;;;;5.00;3.38;;;;;;;23.32;17.95;99486.44;4989841;28;20092;-73
2022/03/10 10:55:06;;;;;;;5.30;3.50;;;;;;;22.13;18.73;99485.91;4985460;28;20064;-71
2022/03/10 10:57:36;;;;;;;4.78;3.20;;;;;;;21.34;19.45;99492.78;4984057;28;20054;-72
2022/03/10 11:00:10;;;;;;;4.97;3.05;;;;;;;22.00;18.91;99482.47;4989705;28;20486;-71
2022/03/10 11:02:43;;;;;;;4.28;3.10;;;;;;;22.97;18.37;99485.97;4985086;28;20149;-72
2022/03/10 11:05:14;;;;;;;4.82;3.08;;;;;;;23.21;17.81;99481.97;4989160;28;20061;-72
2022/03/10 11:07:41;;;;;;;4.60;2.83;;;;;;;23.96;17.04;99476.94;4973215;28;20125;-71
2022/03/10 11:10:08;;;;;;;4.90;3.05;;;;;;;23.44;17.93;99477.91;4991045;28;20030;-68
2022/03/10 11:12:39;;;;;;;8.10;3.08;;;;;;;23.94;17.67;99468.91;4968809;28;20114;-71
2022/03/10 11:15:08;;;;;;;4.32;3.03;;;;;;;24.27;17.66;99467.53;4987730;28;20030;-72
2022/03/10 11:17:34;;;;;;;5.50;3.72;;;;;;;25.50;16.65;99458.09;4989182;28;20065;-72
2022/03/10 11:20:05;;;;;;;7.07;2.97;;;;;;;24.99;16.77;99449.97;4964944;28;20439;-71
2022/03/10 11:22:57;;;;;;;4.75;3.33;;;;;;;24.60;16.92;99457.03;4974950;28;20085;-71
2022/03/10 11:25:44;;;;;;;4.97;3.40;;;;;;;23.53;17.71;99454.19;4990160;28;20509;-71